Time;durP1;ratioP1;P1;durP2;ratioP2;P2;SDS_P1;SDS_P2;PMS_P1;PMS_P2;Temp;Humidity;BMP_temperature;BMP_pressure;BME280_temperature;BME280_humidity;BME280_pressure;Samples;Min_cycle;Max_cycle;Signal;HPM_P1;HPM_P2
2021/07/17 00:01:17;;;;;;;1999.90;999.90;;;563.20;2432.00;;;;;;5012142;28;20017;-75
2021/07/17 00:03:43;;;;;;;1999.90;999.90;;;538.50;2406.40;;;;;;5013002;28;20040;-77
2021/07/17 00:06:09;;;;;;;1999.90;999.90;;;538.50;2406.40;;;;;;5015449;28;20072;-73
2021/07/17 00:08:35;;;;;;;1999.90;999.90;;;538.50;2406.40;;;;;;4995682;28;20029;-74
2021/07/17 00:11:02;;;;;;;1999.90;999.90;;;538.50;2406.40;;;;;;5013453;28;20472;-77
2021/07/17 00:13:27;;;;;;;1999.90;999.90;;;538.50;2406.40;;;;;;5015020;28;20057;-71
2021/07/17 00:15:56;;;;;;;1999.90;999.90;;;538.50;2406.40;;;;;;5014967;28;20504;-70
2021/07/17 00:18:21;;;;;;;1999.90;999.90;;;538.50;2406.40;;;;;;5014988;28;20049;-72
2021/07/17 00:20:48;;;;;;;1999.90;999.90;;;538.30;2406.40;;;;;;5014793;28;20462;-71
2021/07/17 00:23:14;;;;;;;1999.90;999.90;;;538.30;2406.40;;;;;;5014895;28;20101;-75
2021/07/17 00:25:40;;;;;;;1999.90;999.90;;;538.30;2406.40;;;;;;5013798;28;20097;-74
2021/07/17 00:28:06;;;;;;;1999.90;999.90;;;538.30;2406.40;;;;;;5013216;28;20049;-72
2021/07/17 00:30:32;;;;;;;1999.90;999.90;;;538.30;2406.40;;;;;;5013878;28;20041;-71
2021/07/17 00:32:58;;;;;;;1999.90;999.90;;;538.30;2406.40;;;;;;5014018;28;20116;-72
2021/07/17 00:35:24;;;;;;;1999.90;999.90;;;538.20;2406.40;;;;;;5014233;28;20435;-76
2021/07/17 00:37:50;;;;;;;1999.90;999.90;;;538.30;2406.40;;;;;;5014343;28;20026;-72
2021/07/17 00:40:20;;;;;;;1999.90;999.90;;;538.10;2406.40;;;;;;5013909;28;20424;-71
2021/07/17 00:42:48;;;;;;;1999.90;999.90;;;538.10;2406.40;;;;;;5011880;28;20045;-70
2021/07/17 00:45:13;;;;;;;1999.90;999.90;;;538.10;2406.40;;;;;;5014385;28;20384;-73
2021/07/17 00:47:39;;;;;;;1999.90;999.90;;;538.20;2406.40;;;;;;5013538;28;20014;-71
2021/07/17 00:50:07;;;;;;;1999.90;999.90;;;538.30;2406.40;;;;;;5013627;28;20037;-70
2021/07/17 00:52:34;;;;;;;1999.90;999.90;;;538.30;2406.40;;;;;;5013967;28;20021;-71
2021/07/17 00:55:01;;;;;;;1999.90;999.90;;;538.20;2406.40;;;;;;5013938;28;20030;-71
2021/07/17 00:57:31;;;;;;;1999.90;999.90;;;538.30;2406.40;;;;;;5013754;28;20049;-72
2021/07/17 00:59:59;;;;;;;;;;;538.20;2406.40;;;;;;5013739;28;20036;-70
2021/07/17 01:02:25;;;;;;;1999.90;999.90;;;538.20;2406.40;;;;;;5013492;28;19996;-77
2021/07/17 01:04:53;;;;;;;1999.90;999.90;;;538.20;2406.40;;;;;;5013712;28;20064;-71
2021/07/17 01:07:19;;;;;;;1999.90;999.90;;;538.10;2406.40;;;;;;4995961;28;20117;-71
2021/07/17 01:09:45;;;;;;;1999.90;999.90;;;538.20;2406.40;;;;;;5013492;28;20105;-77
2021/07/17 01:12:10;;;;;;;1999.90;999.90;;;538.10;2406.40;;;;;;5014440;28;20029;-77
2021/07/17 01:14:38;;;;;;;1999.90;999.90;;;538.10;2406.40;;;;;;5014672;28;20026;-77
2021/07/17 01:17:04;;;;;;;1999.90;999.90;;;538.10;2406.40;;;;;;5013938;28;20088;-76
2021/07/17 01:19:30;;;;;;;1999.90;999.90;;;538.10;2406.40;;;;;;5014321;28;20017;-76
2021/07/17 01:21:56;;;;;;;1999.90;999.90;;;538.10;2406.40;;;;;;5014243;28;20480;-75
2021/07/17 01:24:22;;;;;;;1999.90;999.90;;;538.00;2406.40;;;;;;5014173;28;20022;-76
2021/07/17 01:26:49;;;;;;;1999.90;999.90;;;538.00;2406.40;;;;;;5014001;28;20036;-78
2021/07/17 01:29:15;;;;;;;1999.90;999.90;;;538.00;2406.40;;;;;;5014047;28;20117;-77
2021/07/17 01:31:40;;;;;;;1999.90;999.90;;;538.00;2406.40;;;;;;5014197;28;20106;-72
2021/07/17 01:34:06;;;;;;;1999.90;999.90;;;538.00;2406.40;;;;;;5013951;28;20480;-73
2021/07/17 01:36:32;;;;;;;1999.90;999.90;;;538.00;2406.40;;;;;;5013745;28;20022;-72
2021/07/17 01:38:58;;;;;;;1999.90;999.90;;;538.00;2406.40;;;;;;5014199;28;20026;-70
2021/07/17 01:41:23;;;;;;;1999.90;999.90;;;538.00;2406.40;;;;;;5013540;28;20279;-72
2021/07/17 01:43:51;;;;;;;1999.90;999.90;;;538.00;2406.40;;;;;;5013867;28;20041;-75
2021/07/17 01:46:17;;;;;;;1999.90;999.90;;;538.00;2406.40;;;;;;5013734;28;20030;-76
2021/07/17 01:48:56;;;;;;;1999.90;999.90;;;538.00;2406.40;;;;;;5013810;28;20398;-76
2021/07/17 01:51:23;;;;;;;1999.90;999.90;;;538.10;2406.40;;;;;;5013589;28;20033;-75
2021/07/17 01:53:55;;;;;;;1999.90;999.90;;;538.10;2406.40;;;;;;5013798;28;20022;-75
2021/07/17 01:56:22;;;;;;;1999.90;999.90;;;538.00;2406.40;;;;;;5013546;28;20022;-77
2021/07/17 01:58:51;;;;;;;1999.90;999.90;;;538.00;2406.40;;;;;;5013626;28;20026;-77
2021/07/17 02:01:17;;;;;;;1999.90;999.90;;;538.00;2406.40;;;;;;5013564;28;20503;-77
2021/07/17 02:03:44;;;;;;;1999.90;999.90;;;538.00;2406.40;;;;;;5013482;28;20030;-77
2021/07/17 02:06:10;;;;;;;1999.90;999.90;;;538.00;2406.40;;;;;;5013533;28;20022;-74
2021/07/17 02:08:37;;;;;;;1999.90;999.90;;;538.00;2406.40;;;;;;5013402;28;20018;-73
2021/07/17 02:11:05;;;;;;;1999.90;999.90;;;537.90;2406.40;;;;;;5013515;28;20025;-75
2021/07/17 02:13:31;;;;;;;1999.90;999.90;;;537.90;2406.40;;;;;;5013262;28;20049;-75
2021/07/17 02:15:57;;;;;;;1999.90;999.90;;;537.90;2406.40;;;;;;5013318;28;20476;-73
2021/07/17 02:18:27;;;;;;;1999.90;999.90;;;537.90;2406.40;;;;;;5013186;28;20108;-73
2021/07/17 02:20:54;;;;;;;1999.90;999.90;;;537.80;2406.40;;;;;;5012981;28;20026;-72
2021/07/17 02:23:20;;;;;;;1999.90;999.90;;;537.80;2406.40;;;;;;5013331;28;20031;-76
2021/07/17 02:25:47;;;;;;;1999.90;999.90;;;537.90;2406.40;;;;;;5013371;28;20030;-77
2021/07/17 02:28:12;;;;;;;1999.90;999.90;;;537.90;2406.40;;;;;;5012718;28;20034;-77
2021/07/17 02:30:38;;;;;;;1999.90;999.90;;;537.90;2406.40;;;;;;5013280;28;20080;-77
2021/07/17 02:33:04;;;;;;;1999.90;999.90;;;537.90;2406.40;;;;;;5013149;28;20045;-77
2021/07/17 02:35:30;;;;;;;1999.90;999.90;;;538.00;2406.40;;;;;;5013149;28;20029;-73
2021/07/17 02:37:55;;;;;;;1999.90;999.90;;;538.00;2406.40;;;;;;4995121;28;20037;-73
2021/07/17 02:40:21;;;;;;;1999.90;999.90;;;537.90;2406.40;;;;;;5012822;28;20030;-72
2021/07/17 02:42:48;;;;;;;1999.90;999.90;;;537.90;2406.40;;;;;;5012917;28;20099;-77
2021/07/17 02:45:14;;;;;;;1999.90;999.90;;;537.80;2406.40;;;;;;5013019;28;20025;-75
2021/07/17 02:47:40;;;;;;;1999.90;999.90;;;537.90;2406.40;;;;;;5013043;28;20022;-76
2021/07/17 02:50:06;;;;;;;1999.90;999.90;;;537.80;2406.40;;;;;;5012822;28;20021;-76
2021/07/17 02:52:32;;;;;;;1999.90;999.90;;;537.90;2406.40;;;;;;5012972;28;20112;-76
2021/07/17 02:54:58;;;;;;;1999.90;999.90;;;537.80;2406.40;;;;;;5012662;28;20534;-76
2021/07/17 02:57:24;;;;;;;1999.90;999.90;;;537.90;2406.40;;;;;;5012850;28;20065;-76
2021/07/17 02:59:50;;;;;;;1999.90;999.90;;;537.90;2406.40;;;;;;5012672;28;20033;-73
2021/07/17 03:02:16;;;;;;;1999.90;999.90;;;537.90;2406.40;;;;;;5012741;28;20447;-71
2021/07/17 03:04:42;;;;;;;1999.90;999.90;;;538.00;2406.40;;;;;;5012694;28;20389;-73
2021/07/17 03:07:07;;;;;;;1999.90;999.90;;;538.00;2406.40;;;;;;5012541;28;20056;-72
2021/07/17 03:09:33;;;;;;;1999.90;999.90;;;538.00;2406.40;;;;;;5012636;28;20053;-71
2021/07/17 03:11:59;;;;;;;1999.90;999.90;;;538.00;2406.40;;;;;;5012471;28;20050;-70
2021/07/17 03:14:25;;;;;;;1999.90;999.90;;;538.00;2406.40;;;;;;5012568;28;20042;-71
2021/07/17 03:16:51;;;;;;;1999.90;999.90;;;538.00;2406.40;;;;;;5012432;28;20036;-70
2021/07/17 03:19:17;;;;;;;1999.90;999.90;;;538.00;2406.40;;;;;;5012471;28;20093;-75
2021/07/17 03:21:42;;;;;;;1999.90;999.90;;;538.10;2406.40;;;;;;5012585;28;20025;-75
2021/07/17 03:24:08;;;;;;;1999.90;999.90;;;538.10;2406.40;;;;;;5012495;28;20034;-76
2021/07/17 03:26:34;;;;;;;1999.90;999.90;;;538.10;2406.40;;;;;;5012495;28;20026;-77
2021/07/17 03:29:00;;;;;;;1999.90;999.90;;;538.10;2406.40;;;;;;5012423;28;20073;-75
2021/07/17 03:31:32;;;;;;;1999.90;999.90;;;538.10;2406.40;;;;;;5012479;28;20100;-76
2021/07/17 03:33:59;;;;;;;1999.90;999.90;;;538.10;2406.40;;;;;;5012406;28;20128;-76
2021/07/17 03:36:25;;;;;;;1999.90;999.90;;;538.20;2406.40;;;;;;5012579;28;20064;-75
2021/07/17 03:38:51;;;;;;;1999.90;999.90;;;538.30;2406.40;;;;;;5013367;28;20034;-74
2021/07/17 03:41:17;;;;;;;1999.90;999.90;;;538.30;2406.40;;;;;;5017427;28;20029;-71
2021/07/17 03:43:43;;;;;;;1999.90;999.90;;;538.30;2406.40;;;;;;5016254;28;20029;-73
2021/07/17 03:46:09;;;;;;;1999.90;999.90;;;538.30;2406.40;;;;;;5016066;28;20054;-72
2021/07/17 03:48:35;;;;;;;1999.90;999.90;;;538.30;2406.40;;;;;;5016233;28;20495;-72
2021/07/17 03:51:01;;;;;;;1999.90;999.90;;;538.30;2406.40;;;;;;5015968;28;20411;-73
2021/07/17 03:53:27;;;;;;;1999.90;999.90;;;538.20;2406.40;;;;;;5015823;28;20025;-72
2021/07/17 03:55:53;;;;;;;1999.90;999.90;;;538.30;2406.40;;;;;;5015868;28;20036;-71
2021/07/17 03:58:18;;;;;;;1999.90;999.90;;;538.20;2406.40;;;;;;5015630;28;20029;-71
2021/07/17 04:00:44;;;;;;;1999.90;999.90;;;538.30;2406.40;;;;;;5015706;28;20038;-72
2021/07/17 04:03:10;;;;;;;1999.90;999.90;;;538.30;2406.40;;;;;;5015416;28;20029;-72
2021/07/17 04:05:36;;;;;;;1999.90;999.90;;;538.20;2406.40;;;;;;5015763;28;20049;-71
2021/07/17 04:08:02;;;;;;;1999.90;999.90;;;538.30;2406.40;;;;;;5015910;28;20092;-72
2021/07/17 04:10:27;;;;;;;1999.90;999.90;;;538.30;2406.40;;;;;;5015289;28;20018;-72
2021/07/17 04:12:53;;;;;;;1999.90;999.90;;;538.30;2406.40;;;;;;5015751;28;20071;-72
2021/07/17 04:15:19;;;;;;;1999.90;999.90;;;538.30;2406.40;;;;;;5015289;28;20033;-71
2021/07/17 04:17:45;;;;;;;1999.90;999.90;;;538.30;2406.40;;;;;;5015526;28;20038;-70
2021/07/17 04:20:11;;;;;;;1999.90;999.90;;;538.40;2406.40;;;;;;5015401;28;20495;-72
2021/07/17 04:22:37;;;;;;;1999.90;999.90;;;538.30;2406.40;;;;;;5015631;28;20088;-76
2021/07/17 04:25:05;;;;;;;1999.90;999.90;;;538.40;2406.40;;;;;;5015527;28;20054;-75
2021/07/17 04:27:31;;;;;;;1999.90;999.90;;;538.30;2406.40;;;;;;5014949;28;20120;-76
2021/07/17 04:29:57;;;;;;;1999.90;999.90;;;538.40;2406.40;;;;;;5015369;28;20117;-77
2021/07/17 04:32:23;;;;;;;1999.90;999.90;;;538.50;2406.40;;;;;;4997570;28;20077;-78
2021/07/17 04:34:48;;;;;;;1999.90;999.90;;;538.50;2406.40;;;;;;5015153;28;20476;-77
2021/07/17 04:37:19;;;;;;;1999.90;999.90;;;538.50;2406.40;;;;;;5015326;28;20104;-78
2021/07/17 04:39:48;;;;;;;1999.90;999.90;;;538.50;2406.40;;;;;;5015076;28;20037;-78
2021/07/17 04:42:15;;;;;;;1999.90;999.90;;;538.50;2406.40;;;;;;5015254;28;20030;-72
2021/07/17 04:44:41;;;;;;;1999.90;999.90;;;538.50;2406.40;;;;;;5014773;28;20390;-71
2021/07/17 04:47:06;;;;;;;1999.90;999.90;;;538.50;2406.40;;;;;;5014973;28;20056;-72
2021/07/17 04:49:32;;;;;;;1999.90;999.90;;;538.50;2406.40;;;;;;5014308;28;20045;-71
2021/07/17 04:51:58;;;;;;;1999.90;999.90;;;538.50;2406.40;;;;;;5014735;28;20112;-73
2021/07/17 04:54:24;;;;;;;1999.90;999.90;;;563.20;2432.00;;;;;;5014751;28;20026;-72
2021/07/17 04:56:50;;;;;;;1999.90;999.90;;;563.20;2432.00;;;;;;5014554;28;20076;-72
2021/07/17 04:59:16;;;;;;;1999.90;999.90;;;538.50;2406.40;;;;;;5014331;28;20084;-72
2021/07/17 05:01:41;;;;;;;1999.90;999.90;;;538.50;2406.40;;;;;;5014359;28;20053;-73
2021/07/17 05:04:07;;;;;;;1999.90;999.90;;;538.50;2406.40;;;;;;5014932;28;20018;-73
2021/07/17 05:06:33;;;;;;;1999.90;999.90;;;538.50;2406.40;;;;;;5014704;28;20531;-72
2021/07/17 05:08:59;;;;;;;1999.90;999.90;;;538.50;2406.40;;;;;;5014545;28;20047;-72
2021/07/17 05:11:24;;;;;;;1999.90;999.90;;;563.20;2432.00;;;;;;5014464;28;20038;-72
2021/07/17 05:13:50;;;;;;;1999.90;999.90;;;563.20;2432.00;;;;;;5014285;28;20073;-73
2021/07/17 05:16:16;;;;;;;1999.90;999.90;;;563.20;2432.00;;;;;;5014213;28;20034;-77
2021/07/17 05:18:42;;;;;;;1999.90;999.90;;;563.30;2432.00;;;;;;4996760;28;20476;-77
2021/07/17 05:21:08;;;;;;;1999.90;999.90;;;563.50;2432.00;;;;;;5012864;28;20022;-78
2021/07/17 05:23:33;;;;;;;1999.90;999.90;;;563.60;2432.00;;;;;;5014062;28;20443;-77
2021/07/17 05:25:59;;;;;;;1999.90;999.90;;;563.60;2432.00;;;;;;5014180;28;20029;-76
2021/07/17 05:28:25;;;;;;;1999.90;999.90;;;563.70;2432.00;;;;;;5014074;28;20117;-78
2021/07/17 05:30:51;;;;;;;1999.90;999.90;;;563.80;2432.00;;;;;;5012716;28;20033;-77
2021/07/17 05:33:17;;;;;;;1999.90;999.90;;;563.70;2432.00;;;;;;5014183;28;20124;-78
2021/07/17 05:35:42;;;;;;;1999.90;999.90;;;563.80;2432.00;;;;;;5014106;28;20036;-78
2021/07/17 05:38:09;;;;;;;1999.90;999.90;;;563.80;2432.00;;;;;;5013293;28;20026;-76
2021/07/17 05:40:35;;;;;;;1999.90;999.90;;;563.80;2432.00;;;;;;5013470;28;20030;-76
2021/07/17 05:43:01;;;;;;;1999.90;999.90;;;563.80;2432.00;;;;;;5013930;28;20548;-77
2021/07/17 05:45:27;;;;;;;1999.90;999.90;;;563.90;2432.00;;;;;;4996184;28;20112;-78
2021/07/17 05:47:53;;;;;;;1999.90;999.90;;;563.90;2432.00;;;;;;5013478;28;20096;-77
2021/07/17 05:50:19;;;;;;;1999.90;999.90;;;563.90;2432.00;;;;;;5013871;28;20110;-72
2021/07/17 05:52:46;;;;;;;1999.90;999.90;;;563.90;2432.00;;;;;;5013610;28;20026;-72
2021/07/17 05:55:12;;;;;;;1999.90;999.90;;;564.00;2432.00;;;;;;5013353;28;20030;-71
2021/07/17 05:57:38;;;;;;;1999.90;999.90;;;564.00;2432.00;;;;;;5013537;28;20030;-71
2021/07/17 06:00:05;;;;;;;1999.90;999.90;;;564.10;2432.00;;;;;;5013186;28;20033;-73
2021/07/17 06:02:31;;;;;;;1999.90;999.90;;;564.00;2432.00;;;;;;5012616;28;20029;-73
2021/07/17 06:04:57;;;;;;;1999.90;999.90;;;564.00;2432.00;;;;;;5013383;28;20026;-72
2021/07/17 06:07:23;;;;;;;1999.90;999.90;;;564.10;2432.00;;;;;;5013433;28;20558;-71
2021/07/17 06:09:48;;;;;;;1999.90;999.90;;;564.10;2432.00;;;;;;5013181;28;20100;-71
2021/07/17 06:12:14;;;;;;;1999.90;999.90;;;564.10;2432.00;;;;;;5013127;28;20061;-71
2021/07/17 06:14:40;;;;;;;1999.90;999.90;;;564.10;2432.00;;;;;;5013296;28;20029;-73
2021/07/17 06:17:11;;;;;;;1999.90;999.90;;;588.80;2432.00;;;;;;5012956;28;20036;-73
2021/07/17 06:19:38;;;;;;;1999.90;999.90;;;588.90;2432.00;;;;;;4999511;28;20022;-73
2021/07/17 06:22:04;;;;;;;1999.90;999.90;;;588.90;2432.00;;;;;;5013121;28;20026;-72
2021/07/17 06:24:29;;;;;;;1999.90;999.90;;;589.00;2432.00;;;;;;4995340;28;20032;-72
2021/07/17 06:26:55;;;;;;;1999.90;999.90;;;589.00;2432.00;;;;;;5011593;28;20018;-71
2021/07/17 06:29:21;;;;;;;1999.90;999.90;;;589.00;2432.00;;;;;;5011906;28;20097;-72
2021/07/17 06:31:47;;;;;;;1999.90;999.90;;;589.10;2432.00;;;;;;5012341;28;20253;-77
2021/07/17 06:34:12;;;;;;;1999.90;999.90;;;589.10;2432.00;;;;;;5012242;28;20032;-76
2021/07/17 06:36:38;;;;;;;1999.90;999.90;;;589.10;2432.00;;;;;;5012475;28;20026;-77
2021/07/17 06:39:04;;;;;;;1999.90;999.90;;;589.20;2432.00;;;;;;5012314;28;20073;-76
2021/07/17 06:41:30;;;;;;;1999.90;999.90;;;589.30;2432.00;;;;;;5012208;28;20104;-77
2021/07/17 06:43:55;;;;;;;1999.90;999.90;;;589.30;2432.00;;;;;;5012738;28;20022;-73
2021/07/17 06:46:21;;;;;;;1999.90;999.90;;;589.40;2432.00;;;;;;5012667;28;20396;-71
2021/07/17 06:48:48;;;;;;;1999.90;999.90;;;589.50;2432.00;;;;;;5011873;28;20028;-71
2021/07/17 06:51:14;;;;;;;1999.90;999.90;;;589.50;2432.00;;;;;;5012493;28;20530;-71
2021/07/17 06:53:40;;;;;;;1999.90;999.90;;;589.60;2432.00;;;;;;5012260;28;20104;-71
2021/07/17 06:58:42;;;;;;;1999.90;999.90;;;589.60;2432.00;;;;;;5414730;23;20072;-76
2021/07/17 07:01:08;;;;;;;1999.90;999.90;;;589.70;2432.00;;;;;;5032908;28;20387;-75
2021/07/17 07:03:34;;;;;;;1999.90;999.90;;;589.70;2432.00;;;;;;5032460;28;20026;-75
2021/07/17 07:06:00;;;;;;;1999.90;999.90;;;589.70;2432.00;;;;;;5032384;28;20468;-76
2021/07/17 07:08:25;;;;;;;1999.90;999.90;;;614.40;2432.00;;;;;;5032136;28;20022;-72
2021/07/17 07:10:51;;;;;;;1999.90;999.90;;;614.40;2432.00;;;;;;5031938;28;20045;-71
2021/07/17 07:13:17;;;;;;;1999.90;999.90;;;614.50;2432.00;;;;;;5033365;28;20037;-75
2021/07/17 07:15:43;;;;;;;1999.90;999.90;;;614.60;2432.00;;;;;;5035889;28;20033;-75
2021/07/17 07:18:12;;;;;;;1999.90;999.90;;;614.80;2432.00;;;;;;5036367;28;20024;-75
2021/07/17 07:20:38;;;;;;;1999.90;999.90;;;614.90;2432.00;;;;;;5035730;28;20022;-70
2021/07/17 07:23:04;;;;;;;1999.90;999.90;;;615.00;2432.00;;;;;;5035576;28;20029;-70
2021/07/17 07:25:30;;;;;;;1999.90;999.90;;;615.10;2432.00;;;;;;5035622;28;20021;-71
2021/07/17 07:27:56;;;;;;;1999.90;999.90;;;615.20;2432.00;;;;;;5035793;28;20033;-74
2021/07/17 07:30:23;;;;;;;1999.90;999.90;;;615.30;2432.00;;;;;;5036002;28;20021;-71
2021/07/17 07:32:49;;;;;;;1999.90;999.90;;;615.30;2432.00;;;;;;5036185;28;20021;-79
2021/07/17 07:35:25;;;;;;;1999.90;999.90;;;640.00;2432.00;;;;;;5036068;28;20030;-74
2021/07/17 07:37:51;;;;;;;1999.90;999.90;;;640.20;2432.00;;;;;;5036293;28;20120;-77
2021/07/17 07:40:19;;;;;;;1999.90;999.90;;;640.50;2432.00;;;;;;5036127;28;20151;-76
2021/07/17 07:42:45;;;;;;;1999.90;999.90;;;640.70;2432.00;;;;;;5036532;28;20109;-80
2021/07/17 07:45:11;;;;;;;1999.90;999.90;;;640.70;2432.00;;;;;;5018308;28;20506;-79
2021/07/17 07:47:38;;;;;;;1999.90;999.90;;;640.70;2432.00;;;;;;5036801;28;20057;-79
2021/07/17 07:50:05;;;;;;;1999.90;999.90;;;640.70;2432.00;;;;;;5028915;28;20030;-82
2021/07/17 07:52:31;;;;;;;1999.90;999.90;;;640.60;2432.00;;;;;;5019611;28;20503;-77
2021/07/17 07:54:57;;;;;;;1999.90;999.90;;;640.60;2432.00;;;;;;5039710;28;20033;-71
2021/07/17 07:57:23;;;;;;;1999.90;999.90;;;640.50;2432.00;;;;;;5039785;28;20478;-72
2021/07/17 07:59:49;;;;;;;1999.90;999.90;;;640.50;2432.00;;;;;;5041460;28;20024;-73
2021/07/17 08:02:15;;;;;;;1999.90;999.90;;;640.50;2432.00;;;;;;5041609;28;20025;-79
2021/07/17 08:04:40;;;;;;;1999.90;999.90;;;640.50;2432.00;;;;;;5042940;28;20471;-79
2021/07/17 08:07:06;;;;;;;1999.90;999.90;;;640.50;2432.00;;;;;;5038526;28;20025;-71
2021/07/17 08:09:32;;;;;;;1999.90;999.90;;;640.60;2432.00;;;;;;5035393;28;20009;-77
2021/07/17 08:11:58;;;;;;;1999.90;999.90;;;640.60;2432.00;;;;;;5018586;28;20108;-77
2021/07/17 08:14:24;;;;;;;1999.90;999.90;;;640.70;2432.00;;;;;;5045522;28;20009;-81
2021/07/17 08:16:49;;;;;;;1999.90;999.90;;;640.70;2432.00;;;;;;5060791;28;20052;-80
2021/07/17 08:19:16;;;;;;;1999.90;999.90;;;640.70;2432.00;;;;;;5060616;28;20017;-81
2021/07/17 08:21:42;;;;;;;1999.90;999.90;;;640.70;2432.00;;;;;;5059743;28;20045;-77
2021/07/17 08:24:08;;;;;;;1999.90;999.90;;;640.90;2432.00;;;;;;5055427;28;20036;-72
2021/07/17 08:26:35;;;;;;;1999.90;999.90;;;665.60;2432.00;;;;;;5053006;28;20040;-70
2021/07/17 08:29:01;;;;;;;1999.90;999.90;;;640.90;2432.00;;;;;;5052218;28;20052;-80
2021/07/17 08:31:26;;;;;;;1999.90;999.90;;;640.90;2432.00;;;;;;5040341;28;20033;-77
2021/07/17 08:33:52;;;;;;;1999.90;999.90;;;640.90;2432.00;;;;;;5054621;28;20041;-72
2021/07/17 08:36:18;;;;;;;1999.90;999.90;;;640.80;2432.00;;;;;;5046810;28;20037;-76
2021/07/17 08:38:44;;;;;;;1999.90;999.90;;;640.60;2432.00;;;;;;5048737;28;20171;-83
2021/07/17 08:41:11;;;;;;;1999.90;999.90;;;640.50;2432.00;;;;;;5051179;28;20038;-81
2021/07/17 08:43:37;;;;;;;1999.90;999.90;;;640.40;2432.00;;;;;;5053104;28;20049;-77
2021/07/17 08:46:04;;;;;;;1999.90;999.90;;;640.40;2432.00;;;;;;5053039;28;20048;-82
2021/07/17 08:48:32;;;;;;;1999.90;999.90;;;640.40;2432.00;;;;;;5048830;28;20017;-78
2021/07/17 08:50:59;;;;;;;1999.90;999.90;;;640.40;2432.00;;;;;;5048031;28;20025;-74
2021/07/17 08:53:26;;;;;;;1999.90;999.90;;;640.50;2432.00;;;;;;5045894;28;20049;-71
2021/07/17 08:55:53;;;;;;;1999.90;999.90;;;640.50;2432.00;;;;;;5046102;28;20125;-72
2021/07/17 08:58:19;;;;;;;1999.90;999.90;;;640.50;2432.00;;;;;;5033538;28;20042;-71
2021/07/17 09:00:46;;;;;;;1999.90;999.90;;;640.50;2432.00;;;;;;5034152;28;20025;-71
2021/07/17 09:03:16;;;;;;;1999.90;999.90;;;640.50;2432.00;;;;;;5034207;28;20018;-73
2021/07/17 09:05:45;;;;;;;1999.90;999.90;;;640.60;2432.00;;;;;;5033423;28;20505;-75
2021/07/17 09:08:15;;;;;;;1999.90;999.90;;;640.70;2432.00;;;;;;5030357;28;20426;-79
2021/07/17 09:10:45;;;;;;;1999.90;999.90;;;640.70;2432.00;;;;;;5032592;28;20397;-72
2021/07/17 09:13:16;;;;;;;1999.90;999.90;;;640.70;2432.00;;;;;;5030445;28;20029;-78
2021/07/17 09:15:55;;;;;;;1999.90;999.90;;;640.70;2432.00;;;;;;5033127;28;20068;-71
2021/07/17 09:18:34;;;;;;;1999.90;999.90;;;640.90;2432.00;;;;;;5031540;28;20052;-70
2021/07/17 09:21:06;;;;;;;1999.90;999.90;;;640.90;2432.00;;;;;;5033483;28;20029;-77
2021/07/17 09:23:35;;;;;;;1999.90;999.90;;;640.80;2432.00;;;;;;5033728;28;20024;-71
2021/07/17 09:26:40;;;;;;;1999.90;999.90;;;640.90;2432.00;;;;;;5033198;28;20053;-74
2021/07/17 09:29:11;;;;;;;1999.90;999.90;;;640.80;2432.00;;;;;;4999609;28;20049;-85
2021/07/17 09:31:49;;;;;;;1999.90;999.90;;;640.90;2432.00;;;;;;5027815;28;20112;-73
2021/07/17 09:34:19;;;;;;;1999.90;999.90;;;665.60;2432.00;;;;;;5032491;28;20029;-71
2021/07/17 09:36:55;;;;;;;1999.90;999.90;;;665.60;2432.00;;;;;;5032874;28;20113;-81
2021/07/17 09:39:26;;;;;;;1999.90;999.90;;;665.70;2432.00;;;;;;5032860;28;20136;-73
2021/07/17 09:42:04;;;;;;;1999.90;999.90;;;665.70;2432.00;;;;;;5032104;28;20450;-72
2021/07/17 09:44:32;;;;;;;1999.90;999.90;;;665.70;2432.00;;;;;;5032326;28;20014;-78
2021/07/17 09:46:58;;;;;;;1999.90;999.90;;;665.70;2432.00;;;;;;5031598;28;20017;-77
2021/07/17 09:49:26;;;;;;;1999.90;999.90;;;665.80;2432.00;;;;;;5031635;28;20021;-80
2021/07/17 09:52:21;;;;;;;1999.90;999.90;;;665.80;2432.00;;;;;;5032404;28;20025;-74
2021/07/17 09:55:07;;;;;;;1999.90;999.90;;;665.70;2432.00;;;;;;5031846;28;20037;-70
2021/07/17 09:57:34;;;;;;;1999.90;999.90;;;665.80;2432.00;;;;;;5029998;28;20099;-76
2021/07/17 10:00:05;;;;;;;1999.90;999.90;;;665.70;2432.00;;;;;;5032695;28;20033;-72
2021/07/17 10:02:31;;;;;;;1999.90;999.90;;;665.70;2432.00;;;;;;5024082;28;20107;-72
2021/07/17 10:04:57;;;;;;;1999.90;999.90;;;665.70;2432.00;;;;;;5032619;28;20514;-72
2021/07/17 10:07:22;;;;;;;1999.90;999.90;;;665.70;2432.00;;;;;;5032471;28;20057;-72
2021/07/17 10:09:51;;;;;;;1999.90;999.90;;;665.80;2432.00;;;;;;5032834;28;20018;-72
2021/07/17 10:12:29;;;;;;;1999.90;999.90;;;665.90;2432.00;;;;;;5031959;28;20057;-74
2021/07/17 10:14:55;;;;;;;1999.90;999.90;;;665.90;2432.00;;;;;;5033141;28;20044;-77
2021/07/17 10:17:42;;;;;;;1999.90;999.90;;;665.90;2432.00;;;;;;5032679;28;20025;-75
2021/07/17 10:20:15;;;;;;;1999.90;999.90;;;666.00;2432.00;;;;;;5024825;28;20395;-77
2021/07/17 10:22:41;;;;;;;1999.90;999.90;;;665.90;2432.00;;;;;;5031872;28;20021;-79
2021/07/17 10:25:10;;;;;;;1999.90;999.90;;;665.90;2432.00;;;;;;5032700;28;20025;-80
2021/07/17 10:27:37;;;;;;;1999.90;999.90;;;665.90;2432.00;;;;;;5033121;28;20079;-77
2021/07/17 10:30:07;;;;;;;1999.90;999.90;;;666.00;2432.00;;;;;;5032778;28;20100;-81
2021/07/17 10:32:33;;;;;;;1999.90;999.90;;;666.10;2432.00;;;;;;5032874;28;20049;-75
2021/07/17 10:34:59;;;;;;;1999.90;999.90;;;666.10;2432.00;;;;;;5032602;28;20491;-75
2021/07/17 10:37:32;;;;;;;1999.90;999.90;;;666.20;2432.00;;;;;;5032961;28;20490;-72
2021/07/17 10:40:04;;;;;;;1999.90;999.90;;;666.20;2432.00;;;;;;5032582;28;20484;-69
2021/07/17 10:42:30;;;;;;;1999.90;999.90;;;666.20;2432.00;;;;;;5032694;28;20525;-74
2021/07/17 10:44:56;;;;;;;1999.90;999.90;;;666.30;2432.00;;;;;;5032151;28;20044;-72
2021/07/17 10:47:23;;;;;;;1999.90;999.90;;;666.30;2432.00;;;;;;5032307;28;20475;-77
2021/07/17 10:49:54;;;;;;;1999.90;999.90;;;666.40;2432.00;;;;;;5032235;28;20018;-77
2021/07/17 10:52:39;;;;;;;1999.90;999.90;;;666.50;2432.00;;;;;;5031841;28;20049;-76
2021/07/17 10:55:24;;;;;;;1999.90;999.90;;;691.20;2432.00;;;;;;5032111;28;20049;-78
2021/07/17 10:57:51;;;;;;;1999.90;999.90;;;691.20;2432.00;;;;;;5031795;28;20049;-78
2021/07/17 11:00:43;;;;;;;1999.90;999.90;;;691.30;2432.00;;;;;;5031730;28;20029;-71
2021/07/17 11:03:29;;;;;;;1999.90;999.90;;;691.40;2432.00;;;;;;5024308;28;20399;-74
2021/07/17 11:05:55;;;;;;;1999.90;999.90;;;691.30;2432.00;;;;;;5022543;28;20092;-75
2021/07/17 11:08:32;;;;;;;1999.90;999.90;;;691.40;2432.00;;;;;;5032508;28;20022;-78
2021/07/17 11:10:59;;;;;;;1999.90;999.90;;;691.40;2432.00;;;;;;5032275;28;20539;-79
2021/07/17 11:13:35;;;;;;;1999.90;999.90;;;691.50;2432.00;;;;;;5032364;28;20022;-79
2021/07/17 11:16:02;;;;;;;1999.90;999.90;;;691.40;2432.00;;;;;;5032107;28;20517;-77
2021/07/17 11:18:34;;;;;;;1999.90;999.90;;;691.40;2432.00;;;;;;5032171;28;20021;-79
2021/07/17 11:21:01;;;;;;;1999.90;999.90;;;691.40;2432.00;;;;;;5014457;28;20025;-80
2021/07/17 11:23:36;;;;;;;1999.90;999.90;;;691.30;2432.00;;;;;;5032232;28;20024;-78
2021/07/17 11:26:06;;;;;;;1999.90;999.90;;;691.20;2432.00;;;;;;5031952;28;20029;-77
2021/07/17 11:29:05;;;;;;;1999.90;999.90;;;691.20;2432.00;;;;;;5032207;28;20044;-82
2021/07/17 11:31:31;;;;;;;1999.90;999.90;;;691.20;2432.00;;;;;;5031948;28;20026;-83
2021/07/17 11:34:20;;;;;;;1999.90;999.90;;;666.50;2432.00;;;;;;5032056;28;20028;-83
2021/07/17 11:36:48;;;;;;;1999.90;999.90;;;666.50;2432.00;;;;;;5031907;28;20391;-76
2021/07/17 11:39:20;;;;;;;1999.90;999.90;;;666.50;2432.00;;;;;;5031887;28;20064;-80